sensor_id;sensor_type;location;lat;lon;timestamp;P1;durP1;ratioP1;P2;durP2;ratioP2
69310;SDS011;56430;48.154;16.458;2022-10-31T00:01:24;12.23;;;5.22;;
69310;SDS011;56430;48.154;16.458;2022-10-31T00:03:52;14.18;;;6.03;;
69310;SDS011;56430;48.154;16.458;2022-10-31T00:06:19;16.30;;;5.82;;
69310;SDS011;56430;48.154;16.458;2022-10-31T00:08:47;17.60;;;6.40;;
69310;SDS011;56430;48.154;16.458;2022-10-31T00:11:19;16.50;;;7.38;;
69310;SDS011;56430;48.154;16.458;2022-10-31T00:13:46;17.35;;;7.28;;
69310;SDS011;56430;48.154;16.458;2022-10-31T00:16:14;17.08;;;6.90;;
69310;SDS011;56430;48.154;16.458;2022-10-31T00:18:41;16.80;;;6.75;;
69310;SDS011;56430;48.154;16.458;2022-10-31T00:21:09;15.47;;;5.83;;
69310;SDS011;56430;48.154;16.458;2022-10-31T00:23:36;17.25;;;7.20;;
69310;SDS011;56430;48.154;16.458;2022-10-31T00:26:03;18.83;;;6.82;;
69310;SDS011;56430;48.154;16.458;2022-10-31T00:28:33;18.45;;;7.80;;
69310;SDS011;56430;48.154;16.458;2022-10-31T00:31:01;17.13;;;7.35;;
69310;SDS011;56430;48.154;16.458;2022-10-31T00:33:32;19.20;;;7.67;;
69310;SDS011;56430;48.154;16.458;2022-10-31T00:36:05;17.30;;;7.50;;
69310;SDS011;56430;48.154;16.458;2022-10-31T00:38:33;15.60;;;6.93;;
69310;SDS011;56430;48.154;16.458;2022-10-31T00:41:01;17.02;;;7.40;;
69310;SDS011;56430;48.154;16.458;2022-10-31T00:43:28;17.50;;;7.53;;
69310;SDS011;56430;48.154;16.458;2022-10-31T00:45:57;16.33;;;7.23;;
69310;SDS011;56430;48.154;16.458;2022-10-31T00:48:24;19.05;;;7.53;;
69310;SDS011;56430;48.154;16.458;2022-10-31T00:50:51;16.92;;;7.13;;
69310;SDS011;56430;48.154;16.458;2022-10-31T00:53:18;16.95;;;7.28;;
69310;SDS011;56430;48.154;16.458;2022-10-31T00:55:45;16.15;;;7.53;;
69310;SDS011;56430;48.154;16.458;2022-10-31T00:58:13;14.97;;;6.63;;
69310;SDS011;56430;48.154;16.458;2022-10-31T01:00:40;18.98;;;7.05;;
69310;SDS011;56430;48.154;16.458;2022-10-31T01:03:09;19.63;;;7.80;;
69310;SDS011;56430;48.154;16.458;2022-10-31T01:05:36;17.30;;;7.13;;
69310;SDS011;56430;48.154;16.458;2022-10-31T01:08:03;17.92;;;7.18;;
69310;SDS011;56430;48.154;16.458;2022-10-31T01:10:31;19.90;;;7.23;;
69310;SDS011;56430;48.154;16.458;2022-10-31T01:12:58;18.13;;;7.28;;
69310;SDS011;56430;48.154;16.458;2022-10-31T01:15:25;17.05;;;7.43;;
69310;SDS011;56430;48.154;16.458;2022-10-31T01:17:52;19.05;;;7.05;;
69310;SDS011;56430;48.154;16.458;2022-10-31T01:20:21;17.55;;;7.43;;
69310;SDS011;56430;48.154;16.458;2022-10-31T01:22:48;19.60;;;8.33;;
69310;SDS011;56430;48.154;16.458;2022-10-31T01:25:15;18.73;;;8.13;;
69310;SDS011;56430;48.154;16.458;2022-10-31T01:27:46;19.08;;;8.57;;
69310;SDS011;56430;48.154;16.458;2022-10-31T01:30:13;19.20;;;8.73;;
69310;SDS011;56430;48.154;16.458;2022-10-31T01:32:40;23.85;;;10.13;;
69310;SDS011;56430;48.154;16.458;2022-10-31T01:35:07;21.00;;;9.43;;
69310;SDS011;56430;48.154;16.458;2022-10-31T01:37:36;20.40;;;9.15;;
69310;SDS011;56430;48.154;16.458;2022-10-31T01:40:04;20.63;;;8.90;;
69310;SDS011;56430;48.154;16.458;2022-10-31T01:42:32;22.33;;;9.50;;
69310;SDS011;56430;48.154;16.458;2022-10-31T01:44:59;20.63;;;8.45;;
69310;SDS011;56430;48.154;16.458;2022-10-31T01:47:32;19.77;;;8.77;;
69310;SDS011;56430;48.154;16.458;2022-10-31T01:50:03;21.50;;;8.88;;
69310;SDS011;56430;48.154;16.458;2022-10-31T01:52:43;19.63;;;9.40;;
69310;SDS011;56430;48.154;16.458;2022-10-31T01:55:13;20.35;;;9.23;;
69310;SDS011;56430;48.154;16.458;2022-10-31T01:57:44;19.17;;;8.63;;
69310;SDS011;56430;48.154;16.458;2022-10-31T02:00:13;17.90;;;8.40;;
69310;SDS011;56430;48.154;16.458;2022-10-31T02:02:41;20.83;;;9.35;;
69310;SDS011;56430;48.154;16.458;2022-10-31T02:05:10;17.77;;;8.75;;
69310;SDS011;56430;48.154;16.458;2022-10-31T02:07:39;17.48;;;8.10;;
69310;SDS011;56430;48.154;16.458;2022-10-31T02:10:12;17.17;;;7.53;;
69310;SDS011;56430;48.154;16.458;2022-10-31T02:12:39;18.90;;;8.07;;
69310;SDS011;56430;48.154;16.458;2022-10-31T02:15:08;17.88;;;8.10;;
69310;SDS011;56430;48.154;16.458;2022-10-31T02:17:41;18.20;;;8.38;;
69310;SDS011;56430;48.154;16.458;2022-10-31T02:20:11;21.40;;;8.95;;
69310;SDS011;56430;48.154;16.458;2022-10-31T02:22:48;20.73;;;9.27;;
69310;SDS011;56430;48.154;16.458;2022-10-31T02:25:31;17.43;;;8.43;;
69310;SDS011;56430;48.154;16.458;2022-10-31T02:28:16;19.15;;;8.75;;
69310;SDS011;56430;48.154;16.458;2022-10-31T02:30:57;14.20;;;7.03;;
69310;SDS011;56430;48.154;16.458;2022-10-31T02:33:29;16.40;;;7.38;;
69310;SDS011;56430;48.154;16.458;2022-10-31T02:36:02;17.73;;;8.10;;
69310;SDS011;56430;48.154;16.458;2022-10-31T02:38:37;20.90;;;8.53;;
69310;SDS011;56430;48.154;16.458;2022-10-31T02:41:10;15.93;;;7.70;;
69310;SDS011;56430;48.154;16.458;2022-10-31T02:43:45;19.33;;;8.88;;
69310;SDS011;56430;48.154;16.458;2022-10-31T02:46:19;18.05;;;7.65;;
69310;SDS011;56430;48.154;16.458;2022-10-31T02:48:51;19.98;;;8.15;;
69310;SDS011;56430;48.154;16.458;2022-10-31T02:51:20;17.40;;;8.10;;
69310;SDS011;56430;48.154;16.458;2022-10-31T02:53:47;18.90;;;8.45;;
69310;SDS011;56430;48.154;16.458;2022-10-31T02:56:15;16.60;;;7.22;;
69310;SDS011;56430;48.154;16.458;2022-10-31T02:58:45;15.88;;;7.10;;
69310;SDS011;56430;48.154;16.458;2022-10-31T03:01:30;16.85;;;7.78;;
69310;SDS011;56430;48.154;16.458;2022-10-31T03:04:07;14.93;;;6.40;;
69310;SDS011;56430;48.154;16.458;2022-10-31T03:06:45;15.10;;;6.28;;
69310;SDS011;56430;48.154;16.458;2022-10-31T03:09:16;14.45;;;6.18;;
69310;SDS011;56430;48.154;16.458;2022-10-31T03:11:51;15.35;;;6.65;;
69310;SDS011;56430;48.154;16.458;2022-10-31T03:14:24;12.40;;;6.03;;
69310;SDS011;56430;48.154;16.458;2022-10-31T03:16:55;12.00;;;5.13;;
69310;SDS011;56430;48.154;16.458;2022-10-31T03:19:25;11.15;;;4.65;;
69310;SDS011;56430;48.154;16.458;2022-10-31T03:21:54;12.10;;;5.57;;
69310;SDS011;56430;48.154;16.458;2022-10-31T03:24:24;10.45;;;5.00;;
69310;SDS011;56430;48.154;16.458;2022-10-31T03:26:54;9.77;;;4.97;;
69310;SDS011;56430;48.154;16.458;2022-10-31T03:29:24;10.67;;;5.00;;
69310;SDS011;56430;48.154;16.458;2022-10-31T03:31:55;9.90;;;4.40;;
69310;SDS011;56430;48.154;16.458;2022-10-31T03:34:24;10.15;;;3.97;;
69310;SDS011;56430;48.154;16.458;2022-10-31T03:36:52;10.00;;;4.20;;
69310;SDS011;56430;48.154;16.458;2022-10-31T03:39:21;10.07;;;3.80;;
69310;SDS011;56430;48.154;16.458;2022-10-31T03:41:51;8.40;;;3.87;;
69310;SDS011;56430;48.154;16.458;2022-10-31T03:44:21;7.60;;;3.10;;
69310;SDS011;56430;48.154;16.458;2022-10-31T03:46:49;9.65;;;3.80;;
69310;SDS011;56430;48.154;16.458;2022-10-31T03:49:18;8.88;;;4.03;;
69310;SDS011;56430;48.154;16.458;2022-10-31T03:51:46;10.93;;;4.40;;
69310;SDS011;56430;48.154;16.458;2022-10-31T03:54:18;8.67;;;3.70;;
69310;SDS011;56430;48.154;16.458;2022-10-31T03:56:49;8.65;;;3.92;;
69310;SDS011;56430;48.154;16.458;2022-10-31T03:59:17;9.20;;;4.00;;
69310;SDS011;56430;48.154;16.458;2022-10-31T04:01:48;9.70;;;4.05;;
69310;SDS011;56430;48.154;16.458;2022-10-31T04:04:18;8.25;;;3.90;;
69310;SDS011;56430;48.154;16.458;2022-10-31T04:06:46;8.63;;;3.80;;
69310;SDS011;56430;48.154;16.458;2022-10-31T04:09:14;5.90;;;2.85;;
69310;SDS011;56430;48.154;16.458;2022-10-31T04:11:53;6.57;;;2.90;;
69310;SDS011;56430;48.154;16.458;2022-10-31T04:14:21;7.38;;;2.20;;
69310;SDS011;56430;48.154;16.458;2022-10-31T04:16:49;6.90;;;2.55;;
69310;SDS011;56430;48.154;16.458;2022-10-31T04:19:20;7.13;;;2.40;;
69310;SDS011;56430;48.154;16.458;2022-10-31T04:21:47;5.60;;;2.60;;
69310;SDS011;56430;48.154;16.458;2022-10-31T04:24:15;6.70;;;2.50;;
69310;SDS011;56430;48.154;16.458;2022-10-31T04:26:42;5.10;;;2.22;;
69310;SDS011;56430;48.154;16.458;2022-10-31T04:29:09;5.90;;;2.70;;
69310;SDS011;56430;48.154;16.458;2022-10-31T04:31:36;4.47;;;2.30;;
69310;SDS011;56430;48.154;16.458;2022-10-31T04:34:03;6.57;;;2.78;;
69310;SDS011;56430;48.154;16.458;2022-10-31T04:36:32;5.85;;;2.60;;
69310;SDS011;56430;48.154;16.458;2022-10-31T04:38:59;6.10;;;2.80;;
69310;SDS011;56430;48.154;16.458;2022-10-31T04:41:26;6.97;;;2.67;;
69310;SDS011;56430;48.154;16.458;2022-10-31T04:43:53;7.20;;;2.67;;
69310;SDS011;56430;48.154;16.458;2022-10-31T04:46:21;6.50;;;2.85;;
69310;SDS011;56430;48.154;16.458;2022-10-31T04:48:51;6.57;;;2.70;;
69310;SDS011;56430;48.154;16.458;2022-10-31T04:51:26;5.45;;;2.47;;
69310;SDS011;56430;48.154;16.458;2022-10-31T04:53:55;5.22;;;2.42;;
69310;SDS011;56430;48.154;16.458;2022-10-31T04:56:22;6.27;;;2.53;;
69310;SDS011;56430;48.154;16.458;2022-10-31T04:58:49;7.93;;;2.60;;
69310;SDS011;56430;48.154;16.458;2022-10-31T05:01:16;5.13;;;2.30;;
69310;SDS011;56430;48.154;16.458;2022-10-31T05:03:43;5.78;;;2.80;;
69310;SDS011;56430;48.154;16.458;2022-10-31T05:06:10;7.18;;;2.67;;
69310;SDS011;56430;48.154;16.458;2022-10-31T05:08:38;8.43;;;3.00;;
69310;SDS011;56430;48.154;16.458;2022-10-31T05:11:06;7.32;;;3.20;;
69310;SDS011;56430;48.154;16.458;2022-10-31T05:13:34;7.50;;;2.90;;
69310;SDS011;56430;48.154;16.458;2022-10-31T05:16:04;8.45;;;2.60;;
69310;SDS011;56430;48.154;16.458;2022-10-31T05:18:31;5.70;;;2.30;;
69310;SDS011;56430;48.154;16.458;2022-10-31T05:20:59;7.33;;;3.13;;
69310;SDS011;56430;48.154;16.458;2022-10-31T05:23:26;7.10;;;2.67;;
69310;SDS011;56430;48.154;16.458;2022-10-31T05:25:53;6.85;;;3.03;;
69310;SDS011;56430;48.154;16.458;2022-10-31T05:28:22;8.23;;;3.10;;
69310;SDS011;56430;48.154;16.458;2022-10-31T05:30:49;9.25;;;2.88;;
69310;SDS011;56430;48.154;16.458;2022-10-31T05:33:16;5.87;;;2.70;;
69310;SDS011;56430;48.154;16.458;2022-10-31T05:35:43;6.50;;;2.58;;
69310;SDS011;56430;48.154;16.458;2022-10-31T05:38:10;6.63;;;2.92;;
69310;SDS011;56430;48.154;16.458;2022-10-31T05:40:38;7.13;;;2.85;;
69310;SDS011;56430;48.154;16.458;2022-10-31T05:43:05;7.03;;;2.40;;
69310;SDS011;56430;48.154;16.458;2022-10-31T05:45:33;10.90;;;3.23;;
69310;SDS011;56430;48.154;16.458;2022-10-31T05:48:01;8.02;;;3.20;;
69310;SDS011;56430;48.154;16.458;2022-10-31T05:50:29;6.88;;;2.65;;
69310;SDS011;56430;48.154;16.458;2022-10-31T05:52:58;5.75;;;2.83;;
69310;SDS011;56430;48.154;16.458;2022-10-31T05:55:26;8.70;;;2.97;;
69310;SDS011;56430;48.154;16.458;2022-10-31T05:57:54;8.60;;;3.10;;
69310;SDS011;56430;48.154;16.458;2022-10-31T06:00:22;12.23;;;3.15;;
69310;SDS011;56430;48.154;16.458;2022-10-31T06:02:58;6.88;;;3.10;;
69310;SDS011;56430;48.154;16.458;2022-10-31T06:05:25;7.00;;;2.90;;
69310;SDS011;56430;48.154;16.458;2022-10-31T06:07:53;7.75;;;3.40;;
69310;SDS011;56430;48.154;16.458;2022-10-31T06:10:20;7.33;;;2.87;;
69310;SDS011;56430;48.154;16.458;2022-10-31T06:12:48;6.97;;;2.65;;
69310;SDS011;56430;48.154;16.458;2022-10-31T06:15:16;9.45;;;3.30;;
69310;SDS011;56430;48.154;16.458;2022-10-31T06:17:43;7.43;;;2.95;;
69310;SDS011;56430;48.154;16.458;2022-10-31T06:20:12;7.18;;;3.25;;
69310;SDS011;56430;48.154;16.458;2022-10-31T06:22:39;7.47;;;3.23;;
69310;SDS011;56430;48.154;16.458;2022-10-31T06:25:07;8.57;;;3.20;;
69310;SDS011;56430;48.154;16.458;2022-10-31T06:27:34;8.10;;;2.92;;
69310;SDS011;56430;48.154;16.458;2022-10-31T06:30:01;8.27;;;3.42;;
69310;SDS011;56430;48.154;16.458;2022-10-31T06:32:29;8.30;;;3.10;;
69310;SDS011;56430;48.154;16.458;2022-10-31T06:34:56;15.60;;;3.10;;
69310;SDS011;56430;48.154;16.458;2022-10-31T06:37:24;23.30;;;3.83;;
69310;SDS011;56430;48.154;16.458;2022-10-31T06:39:52;8.25;;;3.13;;
69310;SDS011;56430;48.154;16.458;2022-10-31T06:42:19;7.80;;;2.97;;
69310;SDS011;56430;48.154;16.458;2022-10-31T06:44:46;8.35;;;3.17;;
69310;SDS011;56430;48.154;16.458;2022-10-31T06:47:13;7.97;;;3.20;;
69310;SDS011;56430;48.154;16.458;2022-10-31T06:49:40;9.85;;;3.47;;
69310;SDS011;56430;48.154;16.458;2022-10-31T06:52:08;7.80;;;3.00;;
69310;SDS011;56430;48.154;16.458;2022-10-31T06:54:36;17.13;;;3.65;;
69310;SDS011;56430;48.154;16.458;2022-10-31T06:57:03;9.75;;;3.72;;
69310;SDS011;56430;48.154;16.458;2022-10-31T06:59:31;8.17;;;3.20;;
69310;SDS011;56430;48.154;16.458;2022-10-31T07:02:00;9.05;;;3.45;;
69310;SDS011;56430;48.154;16.458;2022-10-31T07:04:27;8.00;;;3.05;;
69310;SDS011;56430;48.154;16.458;2022-10-31T07:06:55;9.52;;;3.80;;
69310;SDS011;56430;48.154;16.458;2022-10-31T07:09:22;8.80;;;3.70;;
69310;SDS011;56430;48.154;16.458;2022-10-31T07:11:52;12.60;;;3.73;;
69310;SDS011;56430;48.154;16.458;2022-10-31T07:14:20;9.60;;;4.40;;
69310;SDS011;56430;48.154;16.458;2022-10-31T07:16:50;8.00;;;3.33;;
69310;SDS011;56430;48.154;16.458;2022-10-31T07:19:17;7.82;;;3.28;;
69310;SDS011;56430;48.154;16.458;2022-10-31T07:21:45;8.18;;;3.55;;
69310;SDS011;56430;48.154;16.458;2022-10-31T07:24:12;9.07;;;3.40;;
69310;SDS011;56430;48.154;16.458;2022-10-31T07:26:39;7.90;;;3.65;;
69310;SDS011;56430;48.154;16.458;2022-10-31T07:29:09;7.60;;;3.28;;
69310;SDS011;56430;48.154;16.458;2022-10-31T07:31:36;10.23;;;3.35;;
69310;SDS011;56430;48.154;16.458;2022-10-31T07:34:06;11.02;;;3.78;;
69310;SDS011;56430;48.154;16.458;2022-10-31T07:36:33;8.50;;;3.33;;
69310;SDS011;56430;48.154;16.458;2022-10-31T07:39:00;8.52;;;3.25;;
69310;SDS011;56430;48.154;16.458;2022-10-31T07:41:27;8.55;;;3.53;;
69310;SDS011;56430;48.154;16.458;2022-10-31T07:43:55;9.50;;;3.08;;
69310;SDS011;56430;48.154;16.458;2022-10-31T07:46:23;11.63;;;3.55;;
69310;SDS011;56430;48.154;16.458;2022-10-31T07:48:51;9.57;;;3.40;;
69310;SDS011;56430;48.154;16.458;2022-10-31T07:51:18;7.63;;;3.05;;
69310;SDS011;56430;48.154;16.458;2022-10-31T07:53:45;10.30;;;3.80;;
69310;SDS011;56430;48.154;16.458;2022-10-31T07:56:12;7.70;;;3.25;;
69310;SDS011;56430;48.154;16.458;2022-10-31T07:58:39;13.38;;;3.42;;
69310;SDS011;56430;48.154;16.458;2022-10-31T08:01:06;11.23;;;4.27;;
69310;SDS011;56430;48.154;16.458;2022-10-31T08:03:35;9.00;;;3.63;;
69310;SDS011;56430;48.154;16.458;2022-10-31T08:06:02;11.07;;;4.40;;
69310;SDS011;56430;48.154;16.458;2022-10-31T08:08:30;10.68;;;3.80;;
69310;SDS011;56430;48.154;16.458;2022-10-31T08:10:57;9.10;;;4.05;;
69310;SDS011;56430;48.154;16.458;2022-10-31T08:13:25;10.10;;;3.87;;
69310;SDS011;56430;48.154;16.458;2022-10-31T08:15:52;15.95;;;4.65;;
69310;SDS011;56430;48.154;16.458;2022-10-31T08:18:19;9.48;;;4.30;;
69310;SDS011;56430;48.154;16.458;2022-10-31T08:20:50;10.63;;;4.03;;
69310;SDS011;56430;48.154;16.458;2022-10-31T08:23:17;17.77;;;4.45;;
69310;SDS011;56430;48.154;16.458;2022-10-31T08:25:45;11.37;;;4.50;;
69310;SDS011;56430;48.154;16.458;2022-10-31T08:28:13;12.55;;;4.68;;
69310;SDS011;56430;48.154;16.458;2022-10-31T08:30:41;12.02;;;4.70;;
69310;SDS011;56430;48.154;16.458;2022-10-31T08:33:09;14.75;;;6.00;;
69310;SDS011;56430;48.154;16.458;2022-10-31T08:35:37;16.42;;;6.30;;
69310;SDS011;56430;48.154;16.458;2022-10-31T08:38:06;10.47;;;4.57;;
69310;SDS011;56430;48.154;16.458;2022-10-31T08:40:35;11.15;;;4.60;;
69310;SDS011;56430;48.154;16.458;2022-10-31T08:43:03;11.95;;;4.25;;
69310;SDS011;56430;48.154;16.458;2022-10-31T08:45:31;19.00;;;4.97;;
69310;SDS011;56430;48.154;16.458;2022-10-31T08:47:59;11.90;;;5.72;;
69310;SDS011;56430;48.154;16.458;2022-10-31T08:50:28;12.87;;;4.77;;
69310;SDS011;56430;48.154;16.458;2022-10-31T08:52:59;15.02;;;5.35;;
69310;SDS011;56430;48.154;16.458;2022-10-31T08:55:29;14.35;;;5.80;;
69310;SDS011;56430;48.154;16.458;2022-10-31T08:57:57;15.43;;;6.25;;
69310;SDS011;56430;48.154;16.458;2022-10-31T09:00:25;14.05;;;6.13;;
69310;SDS011;56430;48.154;16.458;2022-10-31T09:02:55;15.60;;;6.33;;
69310;SDS011;56430;48.154;16.458;2022-10-31T09:05:23;21.80;;;7.75;;
69310;SDS011;56430;48.154;16.458;2022-10-31T09:07:50;20.90;;;8.25;;
69310;SDS011;56430;48.154;16.458;2022-10-31T09:10:18;20.55;;;8.90;;
69310;SDS011;56430;48.154;16.458;2022-10-31T09:12:46;24.35;;;8.90;;
69310;SDS011;56430;48.154;16.458;2022-10-31T09:15:13;23.10;;;9.30;;
69310;SDS011;56430;48.154;16.458;2022-10-31T09:17:45;21.83;;;8.93;;
69310;SDS011;56430;48.154;16.458;2022-10-31T09:20:13;24.20;;;8.60;;
69310;SDS011;56430;48.154;16.458;2022-10-31T09:22:40;23.95;;;9.55;;
69310;SDS011;56430;48.154;16.458;2022-10-31T09:25:08;22.40;;;9.38;;
69310;SDS011;56430;48.154;16.458;2022-10-31T09:27:35;24.53;;;9.13;;
69310;SDS011;56430;48.154;16.458;2022-10-31T09:30:04;28.60;;;9.75;;
69310;SDS011;56430;48.154;16.458;2022-10-31T09:32:32;25.20;;;9.82;;
69310;SDS011;56430;48.154;16.458;2022-10-31T09:35:00;26.05;;;9.90;;
69310;SDS011;56430;48.154;16.458;2022-10-31T09:37:27;24.17;;;8.63;;
69310;SDS011;56430;48.154;16.458;2022-10-31T09:39:54;24.50;;;7.87;;
69310;SDS011;56430;48.154;16.458;2022-10-31T09:42:28;19.08;;;7.65;;
69310;SDS011;56430;48.154;16.458;2022-10-31T09:45:13;21.92;;;8.15;;
69310;SDS011;56430;48.154;16.458;2022-10-31T09:47:49;23.20;;;7.68;;
69310;SDS011;56430;48.154;16.458;2022-10-31T09:50:24;18.45;;;7.93;;
69310;SDS011;56430;48.154;16.458;2022-10-31T09:52:54;24.70;;;8.30;;
69310;SDS011;56430;48.154;16.458;2022-10-31T09:55:26;22.42;;;8.07;;
69310;SDS011;56430;48.154;16.458;2022-10-31T09:57:57;18.50;;;6.68;;
69310;SDS011;56430;48.154;16.458;2022-10-31T10:00:26;17.00;;;6.78;;
69310;SDS011;56430;48.154;16.458;2022-10-31T10:02:56;19.88;;;7.53;;
69310;SDS011;56430;48.154;16.458;2022-10-31T10:05:27;27.43;;;8.83;;
69310;SDS011;56430;48.154;16.458;2022-10-31T10:08:00;28.08;;;9.93;;
69310;SDS011;56430;48.154;16.458;2022-10-31T10:10:31;27.27;;;10.38;;
69310;SDS011;56430;48.154;16.458;2022-10-31T10:13:12;27.08;;;9.68;;
69310;SDS011;56430;48.154;16.458;2022-10-31T10:15:52;23.83;;;9.05;;
69310;SDS011;56430;48.154;16.458;2022-10-31T10:18:28;24.57;;;8.60;;
69310;SDS011;56430;48.154;16.458;2022-10-31T10:21:02;26.42;;;9.88;;
69310;SDS011;56430;48.154;16.458;2022-10-31T10:23:42;33.70;;;10.70;;
69310;SDS011;56430;48.154;16.458;2022-10-31T10:26:16;29.23;;;11.00;;
69310;SDS011;56430;48.154;16.458;2022-10-31T10:28:45;29.88;;;11.45;;
69310;SDS011;56430;48.154;16.458;2022-10-31T10:31:17;26.47;;;10.83;;
69310;SDS011;56430;48.154;16.458;2022-10-31T10:33:50;29.30;;;10.95;;
69310;SDS011;56430;48.154;16.458;2022-10-31T10:36:27;33.53;;;11.35;;
69310;SDS011;56430;48.154;16.458;2022-10-31T10:38:58;29.98;;;11.43;;
69310;SDS011;56430;48.154;16.458;2022-10-31T10:41:28;34.67;;;12.95;;
69310;SDS011;56430;48.154;16.458;2022-10-31T10:44:09;35.42;;;12.60;;
69310;SDS011;56430;48.154;16.458;2022-10-31T10:46:40;34.63;;;12.35;;
69310;SDS011;56430;48.154;16.458;2022-10-31T10:49:27;34.33;;;12.60;;
69310;SDS011;56430;48.154;16.458;2022-10-31T10:51:58;33.83;;;11.70;;
69310;SDS011;56430;48.154;16.458;2022-10-31T10:54:35;35.25;;;12.95;;
69310;SDS011;56430;48.154;16.458;2022-10-31T10:57:26;37.60;;;12.70;;
69310;SDS011;56430;48.154;16.458;2022-10-31T10:59:58;36.97;;;13.15;;
69310;SDS011;56430;48.154;16.458;2022-10-31T11:02:31;38.33;;;13.40;;
69310;SDS011;56430;48.154;16.458;2022-10-31T11:05:00;31.30;;;12.63;;
69310;SDS011;56430;48.154;16.458;2022-10-31T11:07:36;40.95;;;12.93;;
69310;SDS011;56430;48.154;16.458;2022-10-31T11:10:04;34.25;;;13.18;;
69310;SDS011;56430;48.154;16.458;2022-10-31T11:12:39;36.60;;;12.77;;
69310;SDS011;56430;48.154;16.458;2022-10-31T11:15:16;36.87;;;12.27;;
69310;SDS011;56430;48.154;16.458;2022-10-31T11:17:47;33.75;;;12.35;;
69310;SDS011;56430;48.154;16.458;2022-10-31T11:20:31;33.95;;;13.23;;
69310;SDS011;56430;48.154;16.458;2022-10-31T11:23:01;33.08;;;12.40;;
69310;SDS011;56430;48.154;16.458;2022-10-31T11:25:47;35.22;;;13.40;;
69310;SDS011;56430;48.154;16.458;2022-10-31T11:28:14;35.17;;;13.20;;
69310;SDS011;56430;48.154;16.458;2022-10-31T11:30:47;33.22;;;12.60;;
69310;SDS011;56430;48.154;16.458;2022-10-31T11:33:18;35.15;;;13.13;;
69310;SDS011;56430;48.154;16.458;2022-10-31T11:35:47;38.55;;;13.07;;
69310;SDS011;56430;48.154;16.458;2022-10-31T11:38:15;35.47;;;13.98;;
69310;SDS011;56430;48.154;16.458;2022-10-31T11:40:51;38.00;;;14.03;;
69310;SDS011;56430;48.154;16.458;2022-10-31T11:43:21;37.60;;;13.82;;
69310;SDS011;56430;48.154;16.458;2022-10-31T11:45:50;41.08;;;14.85;;
69310;SDS011;56430;48.154;16.458;2022-10-31T11:48:18;34.85;;;13.80;;
69310;SDS011;56430;48.154;16.458;2022-10-31T11:50:48;34.05;;;13.68;;
69310;SDS011;56430;48.154;16.458;2022-10-31T11:53:19;42.67;;;14.80;;
69310;SDS011;56430;48.154;16.458;2022-10-31T11:55:59;39.90;;;14.57;;
69310;SDS011;56430;48.154;16.458;2022-10-31T11:58:28;36.28;;;13.20;;
69310;SDS011;56430;48.154;16.458;2022-10-31T12:00:57;37.05;;;13.75;;
69310;SDS011;56430;48.154;16.458;2022-10-31T12:06:12;38.43;;;14.40;;
69310;SDS011;56430;48.154;16.458;2022-10-31T12:08:43;40.65;;;15.35;;
69310;SDS011;56430;48.154;16.458;2022-10-31T12:11:16;33.50;;;13.43;;
69310;SDS011;56430;48.154;16.458;2022-10-31T12:13:58;39.40;;;13.88;;
69310;SDS011;56430;48.154;16.458;2022-10-31T12:16:33;38.80;;;13.50;;
69310;SDS011;56430;48.154;16.458;2022-10-31T12:19:04;35.00;;;13.73;;
69310;SDS011;56430;48.154;16.458;2022-10-31T12:21:34;35.35;;;13.65;;
69310;SDS011;56430;48.154;16.458;2022-10-31T12:24:14;38.72;;;13.88;;
69310;SDS011;56430;48.154;16.458;2022-10-31T12:26:51;34.75;;;14.52;;
69310;SDS011;56430;48.154;16.458;2022-10-31T12:29:33;36.85;;;13.70;;
69310;SDS011;56430;48.154;16.458;2022-10-31T12:32:15;38.53;;;14.17;;
69310;SDS011;56430;48.154;16.458;2022-10-31T12:37:42;40.28;;;15.45;;
69310;SDS011;56430;48.154;16.458;2022-10-31T12:40:24;39.47;;;14.52;;
69310;SDS011;56430;48.154;16.458;2022-10-31T12:43:04;42.67;;;14.15;;
69310;SDS011;56430;48.154;16.458;2022-10-31T12:45:43;41.73;;;16.13;;
69310;SDS011;56430;48.154;16.458;2022-10-31T12:48:21;42.58;;;14.90;;
69310;SDS011;56430;48.154;16.458;2022-10-31T12:50:57;43.30;;;15.85;;
69310;SDS011;56430;48.154;16.458;2022-10-31T12:53:35;41.15;;;15.20;;
69310;SDS011;56430;48.154;16.458;2022-10-31T12:56:14;43.15;;;15.10;;
69310;SDS011;56430;48.154;16.458;2022-10-31T12:59:00;44.50;;;15.93;;
69310;SDS011;56430;48.154;16.458;2022-10-31T13:01:29;43.05;;;15.80;;
69310;SDS011;56430;48.154;16.458;2022-10-31T13:04:02;41.35;;;15.02;;
69310;SDS011;56430;48.154;16.458;2022-10-31T13:06:34;47.05;;;16.25;;
69310;SDS011;56430;48.154;16.458;2022-10-31T13:09:05;45.70;;;15.23;;
69310;SDS011;56430;48.154;16.458;2022-10-31T13:11:35;42.93;;;16.17;;
69310;SDS011;56430;48.154;16.458;2022-10-31T13:14:05;41.08;;;15.10;;
69310;SDS011;56430;48.154;16.458;2022-10-31T13:16:35;44.80;;;15.82;;
69310;SDS011;56430;48.154;16.458;2022-10-31T13:19:08;40.08;;;14.77;;
69310;SDS011;56430;48.154;16.458;2022-10-31T13:21:39;40.67;;;14.35;;
69310;SDS011;56430;48.154;16.458;2022-10-31T13:24:12;44.47;;;14.97;;
69310;SDS011;56430;48.154;16.458;2022-10-31T13:26:43;47.25;;;16.50;;
69310;SDS011;56430;48.154;16.458;2022-10-31T13:29:14;48.03;;;16.02;;
69310;SDS011;56430;48.154;16.458;2022-10-31T13:31:45;55.58;;;17.05;;
69310;SDS011;56430;48.154;16.458;2022-10-31T13:34:18;46.35;;;15.57;;
69310;SDS011;56430;48.154;16.458;2022-10-31T13:36:50;45.20;;;16.10;;
69310;SDS011;56430;48.154;16.458;2022-10-31T13:39:27;46.55;;;16.00;;
69310;SDS011;56430;48.154;16.458;2022-10-31T13:42:01;49.03;;;16.80;;
69310;SDS011;56430;48.154;16.458;2022-10-31T13:44:32;50.22;;;16.38;;
69310;SDS011;56430;48.154;16.458;2022-10-31T13:47:03;47.28;;;17.00;;
69310;SDS011;56430;48.154;16.458;2022-10-31T13:49:40;49.03;;;16.57;;
69310;SDS011;56430;48.154;16.458;2022-10-31T13:52:12;51.67;;;17.27;;
69310;SDS011;56430;48.154;16.458;2022-10-31T13:54:42;47.83;;;16.67;;
69310;SDS011;56430;48.154;16.458;2022-10-31T13:57:15;52.92;;;17.17;;
69310;SDS011;56430;48.154;16.458;2022-10-31T13:59:47;45.90;;;16.85;;
69310;SDS011;56430;48.154;16.458;2022-10-31T14:02:16;47.53;;;16.30;;
69310;SDS011;56430;48.154;16.458;2022-10-31T14:04:46;47.97;;;16.77;;
69310;SDS011;56430;48.154;16.458;2022-10-31T14:07:18;50.22;;;17.75;;
69310;SDS011;56430;48.154;16.458;2022-10-31T14:09:52;48.03;;;16.98;;
69310;SDS011;56430;48.154;16.458;2022-10-31T14:12:23;45.78;;;16.67;;
69310;SDS011;56430;48.154;16.458;2022-10-31T14:14:54;47.50;;;15.93;;
69310;SDS011;56430;48.154;16.458;2022-10-31T14:17:24;49.08;;;17.55;;
69310;SDS011;56430;48.154;16.458;2022-10-31T14:19:58;45.95;;;16.92;;
69310;SDS011;56430;48.154;16.458;2022-10-31T14:22:29;47.10;;;16.40;;
69310;SDS011;56430;48.154;16.458;2022-10-31T14:24:57;42.65;;;15.55;;
69310;SDS011;56430;48.154;16.458;2022-10-31T14:27:35;41.13;;;16.23;;
69310;SDS011;56430;48.154;16.458;2022-10-31T14:30:14;43.08;;;17.35;;
69310;SDS011;56430;48.154;16.458;2022-10-31T14:32:43;42.30;;;16.83;;
69310;SDS011;56430;48.154;16.458;2022-10-31T14:35:14;42.85;;;16.67;;
69310;SDS011;56430;48.154;16.458;2022-10-31T14:37:56;43.58;;;16.90;;
69310;SDS011;56430;48.154;16.458;2022-10-31T14:40:45;46.13;;;17.27;;
69310;SDS011;56430;48.154;16.458;2022-10-31T14:43:26;40.33;;;16.75;;
69310;SDS011;56430;48.154;16.458;2022-10-31T14:46:08;41.88;;;15.35;;